createdAt,value
2018-07-06T00:00:10.960Z,94.50
2018-07-06T00:02:51.269Z,94.40
2018-07-06T00:05:31.645Z,94.10
2018-07-06T00:08:11.876Z,94.50
2018-07-06T00:10:52.290Z,94.20
2018-07-06T00:13:33.296Z,94.30
2018-07-06T00:18:48.061Z,93.90
2018-07-06T00:21:28.455Z,94.30
2018-07-06T00:24:08.804Z,94.40
2018-07-06T00:26:49.094Z,94.30
2018-07-06T00:29:29.455Z,94.20
2018-07-06T00:32:10.363Z,94.20
2018-07-06T00:34:50.696Z,94.50
2018-07-06T00:37:31.163Z,94.70
2018-07-06T00:40:11.659Z,94.70
2018-07-06T00:42:51.936Z,94.70
2018-07-06T00:45:32.327Z,94.90
2018-07-06T00:48:12.970Z,94.80
2018-07-06T00:50:53.529Z,94.70
2018-07-06T00:53:34.127Z,94.70
2018-07-06T00:56:14.588Z,94.60
2018-07-06T00:58:54.978Z,94.70
2018-07-06T01:01:35.459Z,94.70
2018-07-06T01:04:15.709Z,94.60
2018-07-06T01:06:56.444Z,95.00
2018-07-06T01:09:36.783Z,94.70
2018-07-06T01:14:56.962Z,95.50
2018-07-06T01:17:37.602Z,95.70
2018-07-06T01:20:18.049Z,95.60
2018-07-06T01:22:58.296Z,95.70
2018-07-06T01:25:38.895Z,95.60
2018-07-06T01:28:19.540Z,95.40
2018-07-06T01:31:00.192Z,95.30
2018-07-06T01:33:40.671Z,95.30
2018-07-06T01:36:21.180Z,95.10
2018-07-06T01:39:01.513Z,95.30
2018-07-06T01:41:42.102Z,95.20
2018-07-06T01:44:22.442Z,95.60
2018-07-06T01:47:02.891Z,96.40
2018-07-06T01:49:43.378Z,96.90
2018-07-06T01:52:23.967Z,97.60
2018-07-06T01:55:04.428Z,98.20
2018-07-06T01:57:44.748Z,98.90
2018-07-06T02:00:25.191Z,98.50
2018-07-06T02:03:05.767Z,98.60
2018-07-06T02:05:46.399Z,98.60
2018-07-06T02:08:26.761Z,98.30
2018-07-06T02:11:07.287Z,98.00
2018-07-06T02:13:47.617Z,97.50
2018-07-06T02:16:28.667Z,97.30
2018-07-06T02:19:09.241Z,96.80
2018-07-06T02:21:49.723Z,96.40
2018-07-06T02:24:30.121Z,96.20
2018-07-06T02:27:10.482Z,95.90
2018-07-06T02:29:51.036Z,95.90
2018-07-06T02:32:31.408Z,96.20
2018-07-06T02:35:11.971Z,96.10
2018-07-06T02:37:52.303Z,95.80
2018-07-06T02:40:32.779Z,95.60
2018-07-06T02:43:13.167Z,95.30
2018-07-06T02:45:53.641Z,95.40
2018-07-06T02:48:33.865Z,95.30
2018-07-06T02:51:14.271Z,95.90
2018-07-06T02:53:54.798Z,96.00
2018-07-06T02:56:35.275Z,96.10
2018-07-06T02:59:15.785Z,96.30
2018-07-06T03:01:56.252Z,96.30
2018-07-06T03:04:36.753Z,96.40
2018-07-06T03:07:17.112Z,96.50
2018-07-06T03:09:58.285Z,96.80
2018-07-06T03:12:38.651Z,96.80
2018-07-06T03:15:20.171Z,96.90
2018-07-06T03:18:00.762Z,96.90
2018-07-06T03:20:41.022Z,96.70
2018-07-06T03:23:21.395Z,96.60
2018-07-06T03:26:01.885Z,96.50
2018-07-06T03:28:42.668Z,96.60
2018-07-06T03:31:22.710Z,96.30
2018-07-06T03:34:03.036Z,96.40
2018-07-06T03:36:43.631Z,96.30
2018-07-06T03:39:24.015Z,96.10
2018-07-06T03:42:04.560Z,96.10
2018-07-06T03:44:45.185Z,96.20
2018-07-06T03:47:25.868Z,95.30
2018-07-06T03:50:06.141Z,95.20
2018-07-06T03:52:46.540Z,95.00
2018-07-06T03:55:26.833Z,94.60
2018-07-06T03:58:07.366Z,94.30
2018-07-06T04:00:47.660Z,93.50
2018-07-06T04:03:28.108Z,93.60
2018-07-06T04:06:08.871Z,93.60
2018-07-06T04:08:49.133Z,93.50
2018-07-06T04:11:29.545Z,93.20
2018-07-06T04:14:09.988Z,92.50
2018-07-06T04:16:50.557Z,92.10
2018-07-06T04:19:30.997Z,92.10
2018-07-06T04:22:11.356Z,92.00
2018-07-06T04:24:51.718Z,92.50
2018-07-06T04:27:31.995Z,92.90
2018-07-06T04:30:12.394Z,93.30
2018-07-06T04:32:52.679Z,93.50
2018-07-06T04:35:33.213Z,93.40
2018-07-06T04:38:13.700Z,93.60
2018-07-06T04:40:54.044Z,93.60
2018-07-06T04:43:34.425Z,93.20
2018-07-06T04:46:14.800Z,93.10
2018-07-06T04:48:55.396Z,93.50
2018-07-06T04:51:35.758Z,93.40
2018-07-06T04:54:16.279Z,94.00
2018-07-06T04:56:56.580Z,95.00
2018-07-06T04:59:37.313Z,95.50
2018-07-06T05:02:17.659Z,95.60
2018-07-06T05:04:58.060Z,95.50
2018-07-06T05:07:38.417Z,95.50
2018-07-06T05:10:18.953Z,95.00
2018-07-06T05:12:59.267Z,95.00
2018-07-06T05:15:39.608Z,94.70
2018-07-06T05:18:20.107Z,94.40
2018-07-06T05:21:00.666Z,94.20
2018-07-06T05:23:41.019Z,94.00
2018-07-06T05:26:22.045Z,94.00
2018-07-06T05:29:02.423Z,94.00
2018-07-06T05:31:42.752Z,93.70
2018-07-06T05:34:23.192Z,93.60
2018-07-06T05:37:03.600Z,93.40
2018-07-06T05:39:44.167Z,93.40
2018-07-06T05:42:24.643Z,93.40
2018-07-06T05:45:05.031Z,93.30
2018-07-06T05:47:45.356Z,93.50
2018-07-06T05:50:26.029Z,92.70
2018-07-06T05:53:06.420Z,92.70
2018-07-06T05:55:46.847Z,92.50
2018-07-06T05:58:27.229Z,92.60
2018-07-06T06:01:07.677Z,92.40
2018-07-06T06:03:48.020Z,92.10
2018-07-06T06:06:28.490Z,92.40
2018-07-06T06:08:56.411Z,92.40
2018-07-06T06:11:25.860Z,92.50
2018-07-06T06:13:55.144Z,92.10
2018-07-06T06:16:24.415Z,91.80
2018-07-06T06:18:53.624Z,91.50
2018-07-06T06:21:22.781Z,91.50
2018-07-06T06:23:51.883Z,90.50
2018-07-06T06:26:28.857Z,90.20
2018-07-06T06:28:58.235Z,90.30
2018-07-06T06:31:28.844Z,89.50
2018-07-06T06:33:59.850Z,88.30
2018-07-06T06:36:29.691Z,87.40
2018-07-06T06:38:58.957Z,85.60
2018-07-06T06:41:28.350Z,84.90
2018-07-06T06:43:57.726Z,84.80
2018-07-06T06:46:27.021Z,82.50
2018-07-06T06:48:56.185Z,83.20
2018-07-06T06:51:25.625Z,80.50
2018-07-06T06:53:54.963Z,77.40
2018-07-06T06:56:24.515Z,78.40
2018-07-06T06:58:54.088Z,78.90
2018-07-06T07:01:23.440Z,80.70
2018-07-06T07:03:52.853Z,80.10
2018-07-06T07:06:22.454Z,76.80
2018-07-06T07:08:51.882Z,78.50
2018-07-06T07:11:21.257Z,79.20
2018-07-06T07:13:50.839Z,79.20
2018-07-06T07:16:19.914Z,70.50
2018-07-06T07:18:49.125Z,72.70
2018-07-06T07:21:18.348Z,75.60
2018-07-06T07:23:47.627Z,77.90
2018-07-06T07:26:16.846Z,78.40
2018-07-06T07:28:46.095Z,78.80
2018-07-06T07:31:15.382Z,76.90
2018-07-06T07:33:44.576Z,78.40
2018-07-06T07:36:13.703Z,75.10
2018-07-06T07:38:42.976Z,71.00
2018-07-06T07:41:12.133Z,71.40
2018-07-06T07:46:10.242Z,72.50
2018-07-06T07:48:39.445Z,74.80
2018-07-06T07:51:54.570Z,76.50
2018-07-06T07:54:38.332Z,73.60
2018-07-06T07:57:08.002Z,71.50
2018-07-06T07:59:37.300Z,71.40
2018-07-06T08:02:06.924Z,70.90
2018-07-06T08:04:36.250Z,69.00
2018-07-06T08:07:05.768Z,69.50
2018-07-06T08:09:35.771Z,69.50
2018-07-06T08:12:05.526Z,67.50
2018-07-06T08:14:34.839Z,65.40
2018-07-06T08:17:04.032Z,64.10
2018-07-06T08:19:33.251Z,66.70
2018-07-06T08:22:02.463Z,67.50
2018-07-06T08:24:31.898Z,64.80
2018-07-06T08:27:00.985Z,67.20
2018-07-06T08:31:58.977Z,61.30
2018-07-06T08:34:39.279Z,64.70
2018-07-06T08:37:33.131Z,66.40
2018-07-06T08:40:02.290Z,62.50
2018-07-06T08:42:32.874Z,60.90
2018-07-06T08:45:02.559Z,58.70
2018-07-06T08:47:31.816Z,59.60
2018-07-06T08:50:01.979Z,56.70
2018-07-06T08:52:31.313Z,57.40
2018-07-06T08:55:00.506Z,57.20
2018-07-06T08:57:30.933Z,56.50
2018-07-06T09:00:00.143Z,57.10
2018-07-06T09:02:29.599Z,59.00
2018-07-06T09:04:59.815Z,55.10
2018-07-06T09:07:29.000Z,55.00
2018-07-06T09:09:59.310Z,58.60
2018-07-06T09:12:28.648Z,56.40
2018-07-06T09:14:58.405Z,56.50
2018-07-06T09:17:27.568Z,57.80
2018-07-06T09:19:57.946Z,56.70
2018-07-06T09:22:26.926Z,53.80
2018-07-06T09:24:57.626Z,53.50
2018-07-06T09:27:26.955Z,56.90
2018-07-06T09:29:56.448Z,58.80
2018-07-06T09:32:25.685Z,58.40
2018-07-06T09:34:54.967Z,57.70
2018-07-06T09:37:24.634Z,58.40
2018-07-06T09:39:54.046Z,60.40
2018-07-06T09:44:52.262Z,55.00
2018-07-06T09:47:21.418Z,53.40
2018-07-06T09:49:50.643Z,53.50
2018-07-06T09:52:19.914Z,53.50
2018-07-06T09:54:49.220Z,54.50
2018-07-06T09:57:18.418Z,52.10
2018-07-06T09:59:47.619Z,55.20
2018-07-06T10:02:16.919Z,51.40
2018-07-06T10:04:46.157Z,51.90
2018-07-06T10:07:15.327Z,53.60
2018-07-06T10:09:44.526Z,53.70
2018-07-06T10:12:13.780Z,54.30
2018-07-06T10:14:42.963Z,52.10
2018-07-06T10:17:12.332Z,53.80
2018-07-06T10:19:41.546Z,52.30
2018-07-06T10:22:10.973Z,52.50
2018-07-06T10:24:40.232Z,55.10
2018-07-06T10:27:09.442Z,52.80
2018-07-06T10:30:14.345Z,52.90
2018-07-06T10:32:43.672Z,50.10
2018-07-06T10:35:12.876Z,44.30
2018-07-06T10:37:42.203Z,47.30
2018-07-06T10:40:11.439Z,54.30
2018-07-06T10:42:40.817Z,48.70
2018-07-06T10:45:10.797Z,47.30
2018-07-06T10:47:40.077Z,47.00
2018-07-06T10:50:09.510Z,46.30
2018-07-06T10:52:38.664Z,46.60
2018-07-06T10:55:07.832Z,45.40
2018-07-06T10:57:37.033Z,44.50
2018-07-06T11:00:06.261Z,43.00
2018-07-06T11:02:35.337Z,44.70
2018-07-06T11:05:04.666Z,45.60
2018-07-06T11:07:33.894Z,47.40
2018-07-06T11:10:03.112Z,47.00
2018-07-06T11:12:32.314Z,45.70
2018-07-06T11:15:01.672Z,48.20
2018-07-06T11:19:59.602Z,44.20
2018-07-06T11:22:28.828Z,40.20
2018-07-06T11:24:58.290Z,41.50
2018-07-06T11:27:27.606Z,41.40
2018-07-06T11:29:56.789Z,42.20
2018-07-06T11:32:26.104Z,44.30
2018-07-06T11:34:55.980Z,45.50
2018-07-06T11:37:25.269Z,44.90
2018-07-06T11:39:54.584Z,42.90
2018-07-06T11:42:23.742Z,45.20
2018-07-06T11:44:53.045Z,45.90
2018-07-06T11:47:22.220Z,43.40
2018-07-06T11:49:51.502Z,43.50
2018-07-06T11:52:20.708Z,44.20
2018-07-06T11:54:49.856Z,42.30
2018-07-06T11:57:19.081Z,46.40
2018-07-06T11:59:48.321Z,48.60
2018-07-06T12:02:17.503Z,46.60
2018-07-06T12:04:46.702Z,46.10
2018-07-06T12:07:16.619Z,46.60
2018-07-06T12:09:45.830Z,46.90
2018-07-06T12:12:14.930Z,47.10
2018-07-06T12:14:44.933Z,44.70
2018-07-06T12:17:14.166Z,44.90
2018-07-06T12:19:43.391Z,44.90
2018-07-06T12:22:12.536Z,45.50
2018-07-06T12:24:41.799Z,44.50
2018-07-06T12:27:11.076Z,46.60
2018-07-06T12:29:40.391Z,44.80
2018-07-06T12:32:09.866Z,48.10
2018-07-06T12:34:39.329Z,47.00
2018-07-06T12:37:08.611Z,45.70
2018-07-06T12:39:38.047Z,44.70
2018-07-06T12:42:07.923Z,44.70
2018-07-06T12:44:37.175Z,49.40
2018-07-06T12:47:19.093Z,47.50
2018-07-06T12:49:48.265Z,46.00
2018-07-06T12:52:17.645Z,48.40
2018-07-06T12:54:46.948Z,45.10
2018-07-06T12:57:16.139Z,44.10
2018-07-06T12:59:45.364Z,46.70
2018-07-06T13:02:14.612Z,45.50
2018-07-06T13:04:43.833Z,41.20
2018-07-06T13:07:13.076Z,45.00
2018-07-06T13:09:42.544Z,46.30
2018-07-06T13:12:12.061Z,45.50
2018-07-06T13:14:41.232Z,51.70
2018-07-06T13:17:10.387Z,49.50
2018-07-06T13:19:39.732Z,43.40
2018-07-06T13:22:08.916Z,43.40
2018-07-06T13:24:38.138Z,47.30
2018-07-06T13:27:07.471Z,46.50
2018-07-06T13:29:36.596Z,47.30
2018-07-06T13:32:05.984Z,45.60
2018-07-06T13:34:35.112Z,44.50
2018-07-06T13:37:04.319Z,45.30
2018-07-06T13:39:33.589Z,45.80
2018-07-06T13:42:02.889Z,50.10
2018-07-06T13:44:32.179Z,51.30
2018-07-06T13:47:01.361Z,50.60
2018-07-06T13:49:30.571Z,51.50
2018-07-06T13:51:59.848Z,51.70
2018-07-06T13:54:29.053Z,49.90
2018-07-06T13:56:58.296Z,50.50
2018-07-06T13:59:27.866Z,52.00
2018-07-06T14:01:56.851Z,50.70
2018-07-06T14:04:28.520Z,49.50
2018-07-06T14:06:57.839Z,51.60
2018-07-06T14:09:27.076Z,49.30
2018-07-06T14:11:56.726Z,49.50
2018-07-06T14:14:26.043Z,48.50
2018-07-06T14:16:55.197Z,47.50
2018-07-06T14:19:24.577Z,45.20
2018-07-06T14:21:53.684Z,49.10
2018-07-06T14:24:22.871Z,48.40
2018-07-06T14:26:52.125Z,48.50
2018-07-06T14:29:21.256Z,46.80
2018-07-06T14:31:50.489Z,44.80
2018-07-06T14:34:19.712Z,45.90
2018-07-06T14:36:48.904Z,47.40
2018-07-06T14:39:18.116Z,47.50
2018-07-06T14:41:47.430Z,48.80
2018-07-06T14:44:16.693Z,50.30
2018-07-06T14:46:45.810Z,52.00
2018-07-06T14:49:15.092Z,50.30
2018-07-06T14:51:44.397Z,47.20
2018-07-06T14:54:13.744Z,46.30
2018-07-06T14:56:42.901Z,45.50
2018-07-06T15:01:40.997Z,45.30
2018-07-06T15:04:10.126Z,44.50
2018-07-06T15:06:39.546Z,47.20
2018-07-06T15:09:08.819Z,43.60
2018-07-06T15:11:37.993Z,45.50
2018-07-06T15:14:07.129Z,49.60
2018-07-06T15:16:36.405Z,46.70
2018-07-06T15:19:05.832Z,46.50
2018-07-06T15:21:34.983Z,48.30
2018-07-06T15:26:33.010Z,45.40
2018-07-06T15:29:02.162Z,47.30
2018-07-06T15:31:31.302Z,46.60
2018-07-06T15:34:01.086Z,48.50
2018-07-06T15:36:30.318Z,49.30
2018-07-06T15:38:59.515Z,52.80
2018-07-06T15:41:28.767Z,55.30
2018-07-06T15:43:57.918Z,49.10
2018-07-06T15:46:27.234Z,50.70
2018-07-06T15:48:57.917Z,52.20
2018-07-06T15:51:27.153Z,51.80
2018-07-06T15:53:56.406Z,46.60
2018-07-06T15:56:25.708Z,51.00
2018-07-06T15:58:55.130Z,52.20
2018-07-06T16:01:24.363Z,51.10
2018-07-06T16:03:53.516Z,48.90
2018-07-06T16:08:51.795Z,52.40
2018-07-06T16:13:50.127Z,53.70
2018-07-06T16:16:19.592Z,55.00
2018-07-06T16:18:48.925Z,56.50
2018-07-06T16:21:18.117Z,54.70
2018-07-06T16:23:47.290Z,53.60
2018-07-06T16:26:16.564Z,55.00
2018-07-06T16:28:45.815Z,55.10
2018-07-06T16:31:15.093Z,52.10
2018-07-06T16:33:44.279Z,55.00
2018-07-06T16:36:13.678Z,55.20
2018-07-06T16:38:42.998Z,54.60
2018-07-06T16:41:12.200Z,55.50
2018-07-06T16:43:41.395Z,56.60
2018-07-06T16:46:10.606Z,57.60
2018-07-06T16:48:39.787Z,57.30
2018-07-06T16:51:09.049Z,56.10
2018-07-06T16:53:38.349Z,57.00
2018-07-06T16:56:07.492Z,58.60
2018-07-06T16:58:36.813Z,58.80
2018-07-06T17:01:06.146Z,59.50
2018-07-06T17:03:35.336Z,59.70
2018-07-06T17:06:04.698Z,60.80
2018-07-06T17:08:33.813Z,61.70
2018-07-06T17:13:31.812Z,62.20
2018-07-06T17:16:01.096Z,60.80
2018-07-06T17:18:30.288Z,60.70
2018-07-06T17:20:59.596Z,63.00
2018-07-06T17:23:28.717Z,63.10
2018-07-06T17:25:57.863Z,65.20
2018-07-06T17:33:24.651Z,70.70
2018-07-06T17:35:54.006Z,71.90
2018-07-06T17:38:23.128Z,72.70
2018-07-06T17:40:52.355Z,73.00
2018-07-06T17:43:21.464Z,73.10
2018-07-06T17:45:50.852Z,73.20
2018-07-06T17:48:20.104Z,73.50
2018-07-06T17:50:49.491Z,73.90
2018-07-06T17:53:18.635Z,74.80
2018-07-06T17:55:48.613Z,75.40
2018-07-06T17:58:17.869Z,75.80
2018-07-06T18:00:47.006Z,74.10
2018-07-06T18:03:16.443Z,74.40
2018-07-06T18:05:45.694Z,74.50
2018-07-06T18:08:15.908Z,74.30
2018-07-06T18:13:13.852Z,75.20
2018-07-06T18:15:43.096Z,75.10
2018-07-06T18:18:12.564Z,75.70
2018-07-06T18:20:41.762Z,76.50
2018-07-06T18:23:11.208Z,75.40
2018-07-06T18:25:40.204Z,75.50
2018-07-06T18:28:09.420Z,76.20
2018-07-06T18:30:38.696Z,76.10
2018-07-06T18:33:07.889Z,75.70
2018-07-06T18:35:37.156Z,74.70
2018-07-06T18:38:06.384Z,71.90
2018-07-06T18:40:35.507Z,71.40
2018-07-06T18:43:05.021Z,72.00
2018-07-06T18:45:34.192Z,73.30
2018-07-06T18:48:03.304Z,74.50
2018-07-06T18:50:32.402Z,74.00
2018-07-06T18:53:01.616Z,74.90
2018-07-06T18:55:30.758Z,75.10
2018-07-06T18:58:00.052Z,75.60
2018-07-06T19:00:29.375Z,75.00
2018-07-06T19:02:58.631Z,73.00
2018-07-06T19:05:27.903Z,72.90
2018-07-06T19:07:57.703Z,72.70
2018-07-06T19:10:27.318Z,72.50
2018-07-06T19:12:56.532Z,73.70
2018-07-06T19:15:25.825Z,73.20
2018-07-06T19:17:55.220Z,73.00
2018-07-06T19:20:25.150Z,72.60
2018-07-06T19:22:54.325Z,74.10
2018-07-06T19:25:23.550Z,75.20
2018-07-06T19:27:52.770Z,76.10
2018-07-06T19:30:22.051Z,78.00
2018-07-06T19:32:51.238Z,78.50
2018-07-06T19:35:20.368Z,79.90
2018-07-06T19:37:49.487Z,79.90
2018-07-06T19:40:18.735Z,80.80
2018-07-06T19:42:47.911Z,80.40
2018-07-06T19:47:46.208Z,82.00
2018-07-06T19:50:15.883Z,82.10
2018-07-06T19:52:44.975Z,83.00
2018-07-06T19:55:14.422Z,83.60
2018-07-06T19:57:43.630Z,84.20
2018-07-06T20:02:41.599Z,85.40
2018-07-06T20:05:10.784Z,85.60
2018-07-06T20:07:40.053Z,86.00
2018-07-06T20:10:09.393Z,86.30
2018-07-06T20:12:38.624Z,87.00
2018-07-06T20:15:07.830Z,87.40
2018-07-06T20:17:37.101Z,87.90
2018-07-06T20:20:07.752Z,88.30
2018-07-06T20:22:36.984Z,88.50
2018-07-06T20:25:06.147Z,88.90
2018-07-06T20:27:35.324Z,89.90
2018-07-06T20:30:04.735Z,90.10
2018-07-06T20:32:33.933Z,90.20
2018-07-06T20:35:03.785Z,90.50
2018-07-06T20:37:32.876Z,90.60
2018-07-06T20:40:02.029Z,90.70
2018-07-06T20:42:31.282Z,90.90
2018-07-06T20:45:00.425Z,91.50
2018-07-06T20:47:29.601Z,91.20
2018-07-06T20:49:58.847Z,91.20
2018-07-06T20:52:28.316Z,91.50
2018-07-06T20:54:57.583Z,91.60
2018-07-06T20:57:26.768Z,91.70
2018-07-06T20:59:56.174Z,91.90
2018-07-06T21:02:25.363Z,92.10
2018-07-06T21:04:54.583Z,92.40
2018-07-06T21:07:23.849Z,92.30
2018-07-06T21:09:53.032Z,92.60
2018-07-06T21:12:22.316Z,92.70
2018-07-06T21:14:51.574Z,92.80
2018-07-06T21:17:20.960Z,92.90
2018-07-06T21:19:50.085Z,92.90
2018-07-06T21:22:19.584Z,93.30
2018-07-06T21:24:49.192Z,93.40
2018-07-06T21:27:18.448Z,93.30
2018-07-06T21:32:16.463Z,93.90
2018-07-06T21:34:46.061Z,93.70
2018-07-06T21:37:15.227Z,93.70
2018-07-06T21:39:44.445Z,93.90
2018-07-06T21:42:13.663Z,94.20
2018-07-06T21:44:42.854Z,94.20
2018-07-06T21:47:12.773Z,94.30
2018-07-06T21:49:42.773Z,94.40
2018-07-06T21:52:12.085Z,94.60
2018-07-06T21:54:41.275Z,94.50
2018-07-06T21:57:10.548Z,94.60
2018-07-06T21:59:39.880Z,94.90
2018-07-06T22:02:14.102Z,95.10
2018-07-06T22:04:44.441Z,95.10
2018-07-06T22:07:14.754Z,95.20
2018-07-06T22:09:44.244Z,95.30
2018-07-06T22:12:14.017Z,95.30
2018-07-06T22:14:43.230Z,95.60
2018-07-06T22:17:13.179Z,95.60
2018-07-06T22:19:42.480Z,95.60
2018-07-06T22:22:11.620Z,95.70
2018-07-06T22:24:41.093Z,95.90
2018-07-06T22:27:10.286Z,96.10
2018-07-06T22:29:39.540Z,95.90
2018-07-06T22:32:08.844Z,96.00
2018-07-06T22:34:38.079Z,96.10
2018-07-06T22:37:07.266Z,96.10
2018-07-06T22:39:36.531Z,96.00
2018-07-06T22:42:05.812Z,96.10
2018-07-06T22:44:35.046Z,96.10
2018-07-06T22:47:04.552Z,96.30
2018-07-06T22:49:33.755Z,96.50
2018-07-06T22:52:03.022Z,96.50
2018-07-06T22:54:32.188Z,96.60
2018-07-06T22:57:01.394Z,96.60
2018-07-06T22:59:30.701Z,96.60
2018-07-06T23:01:59.948Z,96.70
2018-07-06T23:04:29.277Z,96.50
2018-07-06T23:06:58.448Z,96.70
2018-07-06T23:09:27.671Z,96.70
2018-07-06T23:11:56.881Z,96.70
2018-07-06T23:14:26.791Z,96.90
2018-07-06T23:16:55.965Z,97.10
2018-07-06T23:19:25.342Z,97.10
2018-07-06T23:21:57.759Z,97.20
2018-07-06T23:24:26.944Z,97.40
2018-07-06T23:26:56.224Z,97.40
2018-07-06T23:29:25.436Z,97.30
2018-07-06T23:31:54.694Z,97.30
2018-07-06T23:34:24.092Z,97.40
2018-07-06T23:36:53.492Z,97.70
2018-07-06T23:39:22.679Z,97.70
2018-07-06T23:41:51.891Z,97.60
2018-07-06T23:44:21.142Z,97.50
2018-07-06T23:46:50.449Z,97.50
2018-07-06T23:49:19.552Z,97.30
2018-07-06T23:51:49.293Z,97.40
2018-07-06T23:54:18.606Z,97.60
2018-07-06T23:56:47.894Z,97.80
2018-07-06T23:59:17.092Z,97.50
